sensor_id;sensor_type;location;lat;lon;timestamp;temperature;humidity
15983;DHT22;14442;50.196;8.096;2022-11-25T00:01:15;23.00;46.60
15983;DHT22;14442;50.196;8.096;2022-11-25T00:03:43;23.00;46.50
15983;DHT22;14442;50.196;8.096;2022-11-25T00:06:12;23.00;46.50
15983;DHT22;14442;50.196;8.096;2022-11-25T00:08:39;22.90;46.40
15983;DHT22;14442;50.196;8.096;2022-11-25T00:11:08;22.90;46.40
15983;DHT22;14442;50.196;8.096;2022-11-25T00:13:36;22.90;46.40
15983;DHT22;14442;50.196;8.096;2022-11-25T00:16:05;22.90;46.50
15983;DHT22;14442;50.196;8.096;2022-11-25T00:18:33;22.90;46.50
15983;DHT22;14442;50.196;8.096;2022-11-25T00:21:04;22.90;46.60
15983;DHT22;14442;50.196;8.096;2022-11-25T00:23:31;22.90;46.60
15983;DHT22;14442;50.196;8.096;2022-11-25T00:26:03;22.90;46.50
15983;DHT22;14442;50.196;8.096;2022-11-25T00:28:31;22.80;46.50
15983;DHT22;14442;50.196;8.096;2022-11-25T00:31:03;22.80;46.40
15983;DHT22;14442;50.196;8.096;2022-11-25T00:33:30;22.70;46.30
15983;DHT22;14442;50.196;8.096;2022-11-25T00:35:59;22.80;46.50
15983;DHT22;14442;50.196;8.096;2022-11-25T00:38:26;22.80;46.30
15983;DHT22;14442;50.196;8.096;2022-11-25T00:40:53;22.80;46.50
15983;DHT22;14442;50.196;8.096;2022-11-25T00:43:41;22.80;46.40
15983;DHT22;14442;50.196;8.096;2022-11-25T00:46:25;22.80;46.30
15983;DHT22;14442;50.196;8.096;2022-11-25T00:48:52;22.80;46.40
15983;DHT22;14442;50.196;8.096;2022-11-25T00:51:19;22.80;46.40
15983;DHT22;14442;50.196;8.096;2022-11-25T00:53:45;22.80;46.30
15983;DHT22;14442;50.196;8.096;2022-11-25T00:56:12;22.80;46.30
15983;DHT22;14442;50.196;8.096;2022-11-25T00:58:41;22.80;46.30
15983;DHT22;14442;50.196;8.096;2022-11-25T01:01:09;22.80;46.30
15983;DHT22;14442;50.196;8.096;2022-11-25T01:03:36;22.80;46.20
15983;DHT22;14442;50.196;8.096;2022-11-25T01:06:05;22.80;46.20
15983;DHT22;14442;50.196;8.096;2022-11-25T01:08:33;22.80;46.20
15983;DHT22;14442;50.196;8.096;2022-11-25T01:11:02;22.80;46.10
15983;DHT22;14442;50.196;8.096;2022-11-25T01:13:30;22.90;46.10
15983;DHT22;14442;50.196;8.096;2022-11-25T01:16:00;22.90;46.00
15983;DHT22;14442;50.196;8.096;2022-11-25T01:18:27;22.90;45.90
15983;DHT22;14442;50.196;8.096;2022-11-25T01:20:54;22.90;45.80
15983;DHT22;14442;50.196;8.096;2022-11-25T01:23:20;22.90;45.80
15983;DHT22;14442;50.196;8.096;2022-11-25T01:25:47;22.90;45.70
15983;DHT22;14442;50.196;8.096;2022-11-25T01:28:14;23.00;45.70
15983;DHT22;14442;50.196;8.096;2022-11-25T01:30:41;23.00;45.60
15983;DHT22;14442;50.196;8.096;2022-11-25T01:33:09;23.00;45.50
15983;DHT22;14442;50.196;8.096;2022-11-25T01:35:36;23.00;45.50
15983;DHT22;14442;50.196;8.096;2022-11-25T01:38:03;23.00;45.40
15983;DHT22;14442;50.196;8.096;2022-11-25T01:40:30;23.00;45.40
15983;DHT22;14442;50.196;8.096;2022-11-25T01:42:56;23.10;45.50
15983;DHT22;14442;50.196;8.096;2022-11-25T01:45:34;23.10;45.40
15983;DHT22;14442;50.196;8.096;2022-11-25T01:48:05;23.10;45.40
15983;DHT22;14442;50.196;8.096;2022-11-25T01:50:38;23.10;45.40
15983;DHT22;14442;50.196;8.096;2022-11-25T01:53:08;23.10;45.40
15983;DHT22;14442;50.196;8.096;2022-11-25T01:55:38;23.10;45.30
15983;DHT22;14442;50.196;8.096;2022-11-25T01:58:09;23.10;45.30
15983;DHT22;14442;50.196;8.096;2022-11-25T02:00:37;23.10;45.30
15983;DHT22;14442;50.196;8.096;2022-11-25T02:03:05;23.20;45.40
15983;DHT22;14442;50.196;8.096;2022-11-25T02:05:36;23.20;45.30
15983;DHT22;14442;50.196;8.096;2022-11-25T02:08:06;23.20;45.30
15983;DHT22;14442;50.196;8.096;2022-11-25T02:10:34;23.20;45.30
15983;DHT22;14442;50.196;8.096;2022-11-25T02:13:01;23.20;45.30
15983;DHT22;14442;50.196;8.096;2022-11-25T02:15:28;23.20;45.30
15983;DHT22;14442;50.196;8.096;2022-11-25T02:17:56;23.20;45.30
15983;DHT22;14442;50.196;8.096;2022-11-25T02:20:23;23.20;45.30
15983;DHT22;14442;50.196;8.096;2022-11-25T02:22:56;23.20;45.30
15983;DHT22;14442;50.196;8.096;2022-11-25T02:25:28;23.20;45.30
15983;DHT22;14442;50.196;8.096;2022-11-25T02:27:57;23.20;45.30
15983;DHT22;14442;50.196;8.096;2022-11-25T02:30:25;23.20;45.30
15983;DHT22;14442;50.196;8.096;2022-11-25T02:32:52;23.30;45.40
15983;DHT22;14442;50.196;8.096;2022-11-25T02:35:25;23.20;45.30
15983;DHT22;14442;50.196;8.096;2022-11-25T02:37:55;23.20;45.30
15983;DHT22;14442;50.196;8.096;2022-11-25T02:40:22;23.20;45.30
15983;DHT22;14442;50.196;8.096;2022-11-25T02:42:51;23.20;45.20
15983;DHT22;14442;50.196;8.096;2022-11-25T02:45:23;23.20;45.20
15983;DHT22;14442;50.196;8.096;2022-11-25T02:47:53;23.30;45.40
15983;DHT22;14442;50.196;8.096;2022-11-25T02:50:20;23.30;45.30
15983;DHT22;14442;50.196;8.096;2022-11-25T02:52:47;23.20;45.20
15983;DHT22;14442;50.196;8.096;2022-11-25T02:55:14;23.30;45.20
15983;DHT22;14442;50.196;8.096;2022-11-25T02:57:40;23.30;45.20
15983;DHT22;14442;50.196;8.096;2022-11-25T03:00:10;23.30;45.30
15983;DHT22;14442;50.196;8.096;2022-11-25T03:02:36;23.30;45.20
15983;DHT22;14442;50.196;8.096;2022-11-25T03:05:04;23.30;45.20
15983;DHT22;14442;50.196;8.096;2022-11-25T03:07:31;23.30;45.20
15983;DHT22;14442;50.196;8.096;2022-11-25T03:09:57;23.30;45.20
15983;DHT22;14442;50.196;8.096;2022-11-25T03:12:24;23.30;45.20
15983;DHT22;14442;50.196;8.096;2022-11-25T03:14:53;23.30;45.20
15983;DHT22;14442;50.196;8.096;2022-11-25T03:17:21;23.30;45.30
15983;DHT22;14442;50.196;8.096;2022-11-25T03:19:48;23.30;45.20
15983;DHT22;14442;50.196;8.096;2022-11-25T03:22:15;23.30;45.30
15983;DHT22;14442;50.196;8.096;2022-11-25T03:24:42;23.30;45.90
15983;DHT22;14442;50.196;8.096;2022-11-25T03:27:09;23.30;45.30
15983;DHT22;14442;50.196;8.096;2022-11-25T03:29:35;23.30;45.30
15983;DHT22;14442;50.196;8.096;2022-11-25T03:32:02;23.30;45.30
15983;DHT22;14442;50.196;8.096;2022-11-25T03:34:30;23.30;45.30
15983;DHT22;14442;50.196;8.096;2022-11-25T03:36:57;23.30;45.40
15983;DHT22;14442;50.196;8.096;2022-11-25T03:39:24;23.30;45.40
15983;DHT22;14442;50.196;8.096;2022-11-25T03:41:51;23.30;45.40
15983;DHT22;14442;50.196;8.096;2022-11-25T03:44:17;23.30;45.40
15983;DHT22;14442;50.196;8.096;2022-11-25T03:46:44;23.30;45.40
15983;DHT22;14442;50.196;8.096;2022-11-25T03:49:11;23.30;45.40
15983;DHT22;14442;50.196;8.096;2022-11-25T03:51:39;23.30;45.50
15983;DHT22;14442;50.196;8.096;2022-11-25T03:54:06;23.30;45.50
15983;DHT22;14442;50.196;8.096;2022-11-25T03:56:32;23.30;45.50
15983;DHT22;14442;50.196;8.096;2022-11-25T03:58:59;23.20;45.40
15983;DHT22;14442;50.196;8.096;2022-11-25T04:01:26;23.20;45.50
15983;DHT22;14442;50.196;8.096;2022-11-25T04:03:53;23.20;45.50
15983;DHT22;14442;50.196;8.096;2022-11-25T04:06:19;23.20;45.50
15983;DHT22;14442;50.196;8.096;2022-11-25T04:08:49;23.20;45.60
15983;DHT22;14442;50.196;8.096;2022-11-25T04:11:16;23.20;45.60
15983;DHT22;14442;50.196;8.096;2022-11-25T04:13:43;23.20;45.60
15983;DHT22;14442;50.196;8.096;2022-11-25T04:16:17;23.20;45.60
15983;DHT22;14442;50.196;8.096;2022-11-25T04:18:44;23.20;45.70
15983;DHT22;14442;50.196;8.096;2022-11-25T04:21:11;23.20;45.60
15983;DHT22;14442;50.196;8.096;2022-11-25T04:23:38;23.20;45.70
15983;DHT22;14442;50.196;8.096;2022-11-25T04:26:06;23.20;45.70
15983;DHT22;14442;50.196;8.096;2022-11-25T04:28:33;23.20;45.70
15983;DHT22;14442;50.196;8.096;2022-11-25T04:30:59;23.10;45.60
15983;DHT22;14442;50.196;8.096;2022-11-25T04:33:30;23.10;45.70
15983;DHT22;14442;50.196;8.096;2022-11-25T04:35:57;23.10;45.70
15983;DHT22;14442;50.196;8.096;2022-11-25T04:38:24;23.10;45.70
15983;DHT22;14442;50.196;8.096;2022-11-25T04:40:50;23.10;45.80
15983;DHT22;14442;50.196;8.096;2022-11-25T04:43:19;23.10;45.70
15983;DHT22;14442;50.196;8.096;2022-11-25T04:45:46;23.10;45.80
15983;DHT22;14442;50.196;8.096;2022-11-25T04:48:13;23.10;45.80
15983;DHT22;14442;50.196;8.096;2022-11-25T04:50:40;23.00;45.70
15983;DHT22;14442;50.196;8.096;2022-11-25T04:53:06;23.00;45.80
15983;DHT22;14442;50.196;8.096;2022-11-25T04:55:33;23.00;45.80
15983;DHT22;14442;50.196;8.096;2022-11-25T04:58:00;23.00;45.80
15983;DHT22;14442;50.196;8.096;2022-11-25T05:00:28;23.00;45.80
15983;DHT22;14442;50.196;8.096;2022-11-25T05:02:54;23.00;45.90
15983;DHT22;14442;50.196;8.096;2022-11-25T05:05:21;23.00;45.90
15983;DHT22;14442;50.196;8.096;2022-11-25T05:07:47;23.00;45.90
15983;DHT22;14442;50.196;8.096;2022-11-25T05:10:14;23.00;45.90
15983;DHT22;14442;50.196;8.096;2022-11-25T05:12:41;23.00;46.00
15983;DHT22;14442;50.196;8.096;2022-11-25T05:15:09;23.00;46.00
15983;DHT22;14442;50.196;8.096;2022-11-25T05:17:37;23.00;46.00
15983;DHT22;14442;50.196;8.096;2022-11-25T05:20:06;22.90;46.00
15983;DHT22;14442;50.196;8.096;2022-11-25T05:22:34;22.90;46.00
15983;DHT22;14442;50.196;8.096;2022-11-25T05:25:01;22.90;46.10
15983;DHT22;14442;50.196;8.096;2022-11-25T05:27:30;22.90;46.10
15983;DHT22;14442;50.196;8.096;2022-11-25T05:29:56;22.90;46.10
15983;DHT22;14442;50.196;8.096;2022-11-25T05:32:23;22.90;46.10
15983;DHT22;14442;50.196;8.096;2022-11-25T05:34:51;22.90;46.10
15983;DHT22;14442;50.196;8.096;2022-11-25T05:37:18;22.90;46.20
15983;DHT22;14442;50.196;8.096;2022-11-25T05:39:44;22.90;46.20
15983;DHT22;14442;50.196;8.096;2022-11-25T05:42:11;22.80;46.10
15983;DHT22;14442;50.196;8.096;2022-11-25T05:44:38;22.80;46.10
15983;DHT22;14442;50.196;8.096;2022-11-25T05:47:05;22.90;46.20
15983;DHT22;14442;50.196;8.096;2022-11-25T05:49:31;22.80;46.10
15983;DHT22;14442;50.196;8.096;2022-11-25T05:51:59;22.80;46.20
15983;DHT22;14442;50.196;8.096;2022-11-25T05:54:26;22.80;46.20
15983;DHT22;14442;50.196;8.096;2022-11-25T05:56:53;22.80;46.20
15983;DHT22;14442;50.196;8.096;2022-11-25T05:59:20;22.80;46.20
15983;DHT22;14442;50.196;8.096;2022-11-25T06:01:46;22.80;46.20
15983;DHT22;14442;50.196;8.096;2022-11-25T06:04:13;22.70;46.10
15983;DHT22;14442;50.196;8.096;2022-11-25T06:06:40;22.70;46.20
15983;DHT22;14442;50.196;8.096;2022-11-25T06:09:08;22.70;46.20
15983;DHT22;14442;50.196;8.096;2022-11-25T06:11:35;22.70;46.20
15983;DHT22;14442;50.196;8.096;2022-11-25T06:14:01;22.70;46.30
15983;DHT22;14442;50.196;8.096;2022-11-25T06:16:28;22.70;46.30
15983;DHT22;14442;50.196;8.096;2022-11-25T06:18:55;22.70;46.30
15983;DHT22;14442;50.196;8.096;2022-11-25T06:21:21;22.70;46.30
15983;DHT22;14442;50.196;8.096;2022-11-25T06:23:48;22.70;46.30
15983;DHT22;14442;50.196;8.096;2022-11-25T06:26:18;22.70;46.30
15983;DHT22;14442;50.196;8.096;2022-11-25T06:28:45;22.70;46.30
15983;DHT22;14442;50.196;8.096;2022-11-25T06:31:15;22.70;46.30
15983;DHT22;14442;50.196;8.096;2022-11-25T06:33:45;22.60;46.30
15983;DHT22;14442;50.196;8.096;2022-11-25T06:36:12;22.60;46.30
15983;DHT22;14442;50.196;8.096;2022-11-25T06:38:41;22.60;46.30
15983;DHT22;14442;50.196;8.096;2022-11-25T06:41:08;22.60;46.40
15983;DHT22;14442;50.196;8.096;2022-11-25T06:43:36;22.60;46.40
15983;DHT22;14442;50.196;8.096;2022-11-25T06:46:04;22.60;46.50
15983;DHT22;14442;50.196;8.096;2022-11-25T06:48:32;22.60;46.50
15983;DHT22;14442;50.196;8.096;2022-11-25T06:51:00;22.50;46.40
15983;DHT22;14442;50.196;8.096;2022-11-25T06:53:28;22.50;46.50
15983;DHT22;14442;50.196;8.096;2022-11-25T06:56:02;22.50;46.60
15983;DHT22;14442;50.196;8.096;2022-11-25T06:58:29;22.40;46.70
15983;DHT22;14442;50.196;8.096;2022-11-25T07:01:01;22.40;46.80
15983;DHT22;14442;50.196;8.096;2022-11-25T07:03:28;22.40;46.80
15983;DHT22;14442;50.196;8.096;2022-11-25T07:05:55;22.30;46.80
15983;DHT22;14442;50.196;8.096;2022-11-25T07:08:22;22.40;46.60
15983;DHT22;14442;50.196;8.096;2022-11-25T07:10:49;22.40;46.40
15983;DHT22;14442;50.196;8.096;2022-11-25T07:13:16;22.50;46.40
15983;DHT22;14442;50.196;8.096;2022-11-25T07:15:43;22.50;46.30
15983;DHT22;14442;50.196;8.096;2022-11-25T07:18:11;22.60;46.30
15983;DHT22;14442;50.196;8.096;2022-11-25T07:20:38;22.60;46.30
15983;DHT22;14442;50.196;8.096;2022-11-25T07:23:04;22.60;46.30
15983;DHT22;14442;50.196;8.096;2022-11-25T07:25:32;22.60;46.30
15983;DHT22;14442;50.196;8.096;2022-11-25T07:27:58;22.60;46.30
15983;DHT22;14442;50.196;8.096;2022-11-25T07:30:25;22.60;46.20
15983;DHT22;14442;50.196;8.096;2022-11-25T07:32:52;22.70;46.30
15983;DHT22;14442;50.196;8.096;2022-11-25T07:35:20;22.70;46.10
15983;DHT22;14442;50.196;8.096;2022-11-25T07:37:46;22.70;46.00
15983;DHT22;14442;50.196;8.096;2022-11-25T07:40:13;22.80;46.00
15983;DHT22;14442;50.196;8.096;2022-11-25T07:42:40;22.80;45.90
15983;DHT22;14442;50.196;8.096;2022-11-25T07:45:07;22.90;45.90
15983;DHT22;14442;50.196;8.096;2022-11-25T07:47:34;22.90;45.80
15983;DHT22;14442;50.196;8.096;2022-11-25T07:50:01;22.90;45.80
15983;DHT22;14442;50.196;8.096;2022-11-25T07:52:29;23.00;45.80
15983;DHT22;14442;50.196;8.096;2022-11-25T07:54:56;23.00;45.70
15983;DHT22;14442;50.196;8.096;2022-11-25T07:57:22;23.00;45.60
15983;DHT22;14442;50.196;8.096;2022-11-25T07:59:49;23.00;45.60
15983;DHT22;14442;50.196;8.096;2022-11-25T08:02:16;23.00;45.60
15983;DHT22;14442;50.196;8.096;2022-11-25T08:04:42;23.10;45.70
15983;DHT22;14442;50.196;8.096;2022-11-25T08:07:09;23.10;45.70
15983;DHT22;14442;50.196;8.096;2022-11-25T08:09:37;23.10;45.60
15983;DHT22;14442;50.196;8.096;2022-11-25T08:12:04;23.10;45.60
15983;DHT22;14442;50.196;8.096;2022-11-25T08:14:31;23.10;45.60
15983;DHT22;14442;50.196;8.096;2022-11-25T08:16:59;23.10;45.50
15983;DHT22;14442;50.196;8.096;2022-11-25T08:19:27;23.20;45.60
15983;DHT22;14442;50.196;8.096;2022-11-25T08:21:54;23.20;45.50
15983;DHT22;14442;50.196;8.096;2022-11-25T08:24:21;23.20;45.50
15983;DHT22;14442;50.196;8.096;2022-11-25T08:26:49;23.20;45.50
15983;DHT22;14442;50.196;8.096;2022-11-25T08:29:17;23.20;45.50
15983;DHT22;14442;50.196;8.096;2022-11-25T08:31:45;23.20;45.50
15983;DHT22;14442;50.196;8.096;2022-11-25T08:34:16;23.30;45.50
15983;DHT22;14442;50.196;8.096;2022-11-25T08:36:43;23.30;45.50
15983;DHT22;14442;50.196;8.096;2022-11-25T08:39:10;23.30;45.50
15983;DHT22;14442;50.196;8.096;2022-11-25T08:41:37;23.30;45.50
15983;DHT22;14442;50.196;8.096;2022-11-25T08:44:07;23.30;45.50
15983;DHT22;14442;50.196;8.096;2022-11-25T08:46:35;23.30;45.50
15983;DHT22;14442;50.196;8.096;2022-11-25T08:49:05;23.30;45.50
15983;DHT22;14442;50.196;8.096;2022-11-25T08:51:34;23.30;45.50
15983;DHT22;14442;50.196;8.096;2022-11-25T08:54:01;23.30;45.50
15983;DHT22;14442;50.196;8.096;2022-11-25T08:56:28;23.30;45.70
15983;DHT22;14442;50.196;8.096;2022-11-25T08:58:55;23.20;45.70
15983;DHT22;14442;50.196;8.096;2022-11-25T09:01:26;23.30;45.90
15983;DHT22;14442;50.196;8.096;2022-11-25T09:03:54;23.20;45.90
15983;DHT22;14442;50.196;8.096;2022-11-25T09:06:22;23.20;46.00
15983;DHT22;14442;50.196;8.096;2022-11-25T09:08:50;23.20;46.10
15983;DHT22;14442;50.196;8.096;2022-11-25T09:11:16;23.20;46.70
15983;DHT22;14442;50.196;8.096;2022-11-25T09:13:43;23.20;46.10
15983;DHT22;14442;50.196;8.096;2022-11-25T09:16:10;23.20;46.10
15983;DHT22;14442;50.196;8.096;2022-11-25T09:18:38;23.20;46.10
15983;DHT22;14442;50.196;8.096;2022-11-25T09:21:09;23.30;46.70
15983;DHT22;14442;50.196;8.096;2022-11-25T09:23:36;23.40;46.10
15983;DHT22;14442;50.196;8.096;2022-11-25T09:26:04;23.50;46.50
15983;DHT22;14442;50.196;8.096;2022-11-25T09:28:32;23.60;45.90
15983;DHT22;14442;50.196;8.096;2022-11-25T09:31:04;23.60;45.90
15983;DHT22;14442;50.196;8.096;2022-11-25T09:33:31;23.70;46.00
15983;DHT22;14442;50.196;8.096;2022-11-25T09:36:00;23.70;46.10
15983;DHT22;14442;50.196;8.096;2022-11-25T09:38:27;23.80;46.30
15983;DHT22;14442;50.196;8.096;2022-11-25T09:40:56;23.90;46.70
15983;DHT22;14442;50.196;8.096;2022-11-25T09:43:34;23.70;46.60
15983;DHT22;14442;50.196;8.096;2022-11-25T09:46:37;23.80;46.90
15983;DHT22;14442;50.196;8.096;2022-11-25T09:49:29;23.80;46.80
15983;DHT22;14442;50.196;8.096;2022-11-25T09:52:11;23.80;47.50
15983;DHT22;14442;50.196;8.096;2022-11-25T09:54:41;23.90;46.80
15983;DHT22;14442;50.196;8.096;2022-11-25T09:57:20;23.90;46.80
15983;DHT22;14442;50.196;8.096;2022-11-25T10:00:00;23.90;46.80
15983;DHT22;14442;50.196;8.096;2022-11-25T10:02:42;23.90;47.40
15983;DHT22;14442;50.196;8.096;2022-11-25T10:05:16;23.90;46.80
15983;DHT22;14442;50.196;8.096;2022-11-25T10:07:50;23.90;46.90
15983;DHT22;14442;50.196;8.096;2022-11-25T10:10:23;23.90;46.80
15983;DHT22;14442;50.196;8.096;2022-11-25T10:12:52;23.90;46.70
15983;DHT22;14442;50.196;8.096;2022-11-25T10:15:24;23.90;46.70
15983;DHT22;14442;50.196;8.096;2022-11-25T10:17:54;23.80;46.80
15983;DHT22;14442;50.196;8.096;2022-11-25T10:20:25;23.70;46.80
15983;DHT22;14442;50.196;8.096;2022-11-25T10:22:58;23.70;46.90
15983;DHT22;14442;50.196;8.096;2022-11-25T10:25:28;23.70;46.80
15983;DHT22;14442;50.196;8.096;2022-11-25T10:27:58;23.70;46.90
15983;DHT22;14442;50.196;8.096;2022-11-25T10:30:29;23.70;46.90
15983;DHT22;14442;50.196;8.096;2022-11-25T10:33:04;23.70;46.90
15983;DHT22;14442;50.196;8.096;2022-11-25T10:35:34;23.70;47.20
15983;DHT22;14442;50.196;8.096;2022-11-25T10:38:06;23.70;47.40
15983;DHT22;14442;50.196;8.096;2022-11-25T10:40:37;23.80;47.50
15983;DHT22;14442;50.196;8.096;2022-11-25T10:43:09;23.80;47.40
15983;DHT22;14442;50.196;8.096;2022-11-25T10:45:40;23.80;47.50
15983;DHT22;14442;50.196;8.096;2022-11-25T10:48:20;23.80;47.50
15983;DHT22;14442;50.196;8.096;2022-11-25T10:51:01;23.90;47.60
15983;DHT22;14442;50.196;8.096;2022-11-25T10:53:30;23.80;47.40
15983;DHT22;14442;50.196;8.096;2022-11-25T10:56:00;23.90;47.50
15983;DHT22;14442;50.196;8.096;2022-11-25T10:58:31;23.80;47.40
15983;DHT22;14442;50.196;8.096;2022-11-25T11:01:16;23.80;47.40
15983;DHT22;14442;50.196;8.096;2022-11-25T11:03:45;23.80;47.50
15983;DHT22;14442;50.196;8.096;2022-11-25T11:06:29;23.80;47.50
15983;DHT22;14442;50.196;8.096;2022-11-25T11:08:58;23.70;47.30
15983;DHT22;14442;50.196;8.096;2022-11-25T11:11:25;23.80;47.40
15983;DHT22;14442;50.196;8.096;2022-11-25T11:13:58;23.80;47.40
15983;DHT22;14442;50.196;8.096;2022-11-25T11:16:39;23.80;47.50
15983;DHT22;14442;50.196;8.096;2022-11-25T11:19:19;23.80;47.40
15983;DHT22;14442;50.196;8.096;2022-11-25T11:21:46;23.70;47.30
15983;DHT22;14442;50.196;8.096;2022-11-25T11:24:26;23.70;47.50
15983;DHT22;14442;50.196;8.096;2022-11-25T11:27:06;23.80;47.50
15983;DHT22;14442;50.196;8.096;2022-11-25T11:29:38;23.80;47.50
15983;DHT22;14442;50.196;8.096;2022-11-25T11:32:06;23.80;47.40
15983;DHT22;14442;50.196;8.096;2022-11-25T11:34:53;23.80;47.50
15983;DHT22;14442;50.196;8.096;2022-11-25T11:37:35;23.80;47.50
15983;DHT22;14442;50.196;8.096;2022-11-25T11:40:18;23.80;47.60
15983;DHT22;14442;50.196;8.096;2022-11-25T11:42:56;23.80;47.50
15983;DHT22;14442;50.196;8.096;2022-11-25T11:45:36;23.80;47.60
15983;DHT22;14442;50.196;8.096;2022-11-25T11:48:10;23.80;47.50
15983;DHT22;14442;50.196;8.096;2022-11-25T11:50:40;23.70;47.60
15983;DHT22;14442;50.196;8.096;2022-11-25T11:53:18;23.70;47.50
15983;DHT22;14442;50.196;8.096;2022-11-25T11:55:53;23.70;47.50
15983;DHT22;14442;50.196;8.096;2022-11-25T11:58:33;23.60;47.50
15983;DHT22;14442;50.196;8.096;2022-11-25T12:01:13;23.50;47.50
15983;DHT22;14442;50.196;8.096;2022-11-25T12:03:54;23.50;47.50
15983;DHT22;14442;50.196;8.096;2022-11-25T12:06:23;23.50;47.40
15983;DHT22;14442;50.196;8.096;2022-11-25T12:08:54;23.50;47.50
15983;DHT22;14442;50.196;8.096;2022-11-25T12:11:28;23.50;47.30
15983;DHT22;14442;50.196;8.096;2022-11-25T12:14:03;23.80;46.90
15983;DHT22;14442;50.196;8.096;2022-11-25T12:16:33;23.90;46.60
15983;DHT22;14442;50.196;8.096;2022-11-25T12:19:05;23.90;46.40
15983;DHT22;14442;50.196;8.096;2022-11-25T12:21:38;23.70;46.80
15983;DHT22;14442;50.196;8.096;2022-11-25T12:24:15;23.40;46.90
15983;DHT22;14442;50.196;8.096;2022-11-25T12:26:50;23.30;47.00
15983;DHT22;14442;50.196;8.096;2022-11-25T12:29:24;23.10;46.80
15983;DHT22;14442;50.196;8.096;2022-11-25T12:31:56;23.00;46.80
15983;DHT22;14442;50.196;8.096;2022-11-25T12:34:30;22.90;46.10
15983;DHT22;14442;50.196;8.096;2022-11-25T12:37:04;22.80;46.70
15983;DHT22;14442;50.196;8.096;2022-11-25T12:39:38;22.80;46.30
15983;DHT22;14442;50.196;8.096;2022-11-25T12:42:13;22.90;46.30
15983;DHT22;14442;50.196;8.096;2022-11-25T12:44:48;23.00;46.60
15983;DHT22;14442;50.196;8.096;2022-11-25T12:47:18;23.00;46.70
15983;DHT22;14442;50.196;8.096;2022-11-25T12:49:48;23.00;46.70
15983;DHT22;14442;50.196;8.096;2022-11-25T12:52:29;23.00;46.70
15983;DHT22;14442;50.196;8.096;2022-11-25T12:55:09;23.10;46.70
15983;DHT22;14442;50.196;8.096;2022-11-25T12:57:59;23.20;46.80
15983;DHT22;14442;50.196;8.096;2022-11-25T13:00:40;23.20;46.70
15983;DHT22;14442;50.196;8.096;2022-11-25T13:03:24;23.10;46.70
15983;DHT22;14442;50.196;8.096;2022-11-25T13:06:20;23.20;48.40
15983;DHT22;14442;50.196;8.096;2022-11-25T13:09:01;23.20;47.80
15983;DHT22;14442;50.196;8.096;2022-11-25T13:11:53;23.20;47.40
15983;DHT22;14442;50.196;8.096;2022-11-25T13:14:38;23.10;47.20
15983;DHT22;14442;50.196;8.096;2022-11-25T13:17:12;23.00;47.10
15983;DHT22;14442;50.196;8.096;2022-11-25T13:19:39;22.90;46.90
15983;DHT22;14442;50.196;8.096;2022-11-25T13:22:24;22.90;46.90
15983;DHT22;14442;50.196;8.096;2022-11-25T13:24:56;22.80;46.80
15983;DHT22;14442;50.196;8.096;2022-11-25T13:27:55;22.80;47.30
15983;DHT22;14442;50.196;8.096;2022-11-25T13:30:37;22.80;47.30
15983;DHT22;14442;50.196;8.096;2022-11-25T13:36:15;22.70;47.20
15983;DHT22;14442;50.196;8.096;2022-11-25T13:38:57;22.60;46.70
15983;DHT22;14442;50.196;8.096;2022-11-25T13:41:44;22.60;46.50
15983;DHT22;14442;50.196;8.096;2022-11-25T13:44:21;22.60;46.60
15983;DHT22;14442;50.196;8.096;2022-11-25T13:46:54;22.60;46.60
15983;DHT22;14442;50.196;8.096;2022-11-25T13:49:24;22.60;46.60
15983;DHT22;14442;50.196;8.096;2022-11-25T13:51:54;22.60;46.70
15983;DHT22;14442;50.196;8.096;2022-11-25T13:54:25;22.60;46.60
15983;DHT22;14442;50.196;8.096;2022-11-25T13:57:00;22.50;46.90
15983;DHT22;14442;50.196;8.096;2022-11-25T13:59:49;22.50;47.00
15983;DHT22;14442;50.196;8.096;2022-11-25T14:02:33;22.40;46.80
15983;DHT22;14442;50.196;8.096;2022-11-25T14:08:15;22.50;46.20
15983;DHT22;14442;50.196;8.096;2022-11-25T14:10:51;22.60;46.50
15983;DHT22;14442;50.196;8.096;2022-11-25T14:13:37;22.60;46.50
15983;DHT22;14442;50.196;8.096;2022-11-25T14:16:14;22.70;46.80
15983;DHT22;14442;50.196;8.096;2022-11-25T14:21:51;22.70;46.60
15983;DHT22;14442;50.196;8.096;2022-11-25T14:24:28;22.80;46.70
15983;DHT22;14442;50.196;8.096;2022-11-25T14:26:57;22.90;46.90
15983;DHT22;14442;50.196;8.096;2022-11-25T14:29:28;22.90;47.10
15983;DHT22;14442;50.196;8.096;2022-11-25T14:32:00;22.90;47.00
15983;DHT22;14442;50.196;8.096;2022-11-25T14:34:32;22.90;47.20
15983;DHT22;14442;50.196;8.096;2022-11-25T14:37:07;22.90;47.20
15983;DHT22;14442;50.196;8.096;2022-11-25T14:39:38;22.90;47.40
15983;DHT22;14442;50.196;8.096;2022-11-25T14:42:08;22.90;47.50
15983;DHT22;14442;50.196;8.096;2022-11-25T14:44:38;22.80;48.30
15983;DHT22;14442;50.196;8.096;2022-11-25T14:47:06;22.70;47.80
15983;DHT22;14442;50.196;8.096;2022-11-25T14:49:47;22.70;47.80
15983;DHT22;14442;50.196;8.096;2022-11-25T14:52:16;22.70;47.80
15983;DHT22;14442;50.196;8.096;2022-11-25T14:54:44;22.60;47.50
15983;DHT22;14442;50.196;8.096;2022-11-25T14:57:11;22.60;47.60
15983;DHT22;14442;50.196;8.096;2022-11-25T14:59:38;22.60;47.60
15983;DHT22;14442;50.196;8.096;2022-11-25T15:02:06;22.70;47.60
15983;DHT22;14442;50.196;8.096;2022-11-25T15:04:48;22.70;47.70
15983;DHT22;14442;50.196;8.096;2022-11-25T15:07:18;22.80;47.70
15983;DHT22;14442;50.196;8.096;2022-11-25T15:09:46;22.80;47.50
15983;DHT22;14442;50.196;8.096;2022-11-25T15:12:16;22.90;47.40
15983;DHT22;14442;50.196;8.096;2022-11-25T15:14:48;22.90;47.30
15983;DHT22;14442;50.196;8.096;2022-11-25T15:17:23;22.90;47.30
15983;DHT22;14442;50.196;8.096;2022-11-25T15:19:53;22.90;47.20
15983;DHT22;14442;50.196;8.096;2022-11-25T15:22:21;23.00;47.30
15983;DHT22;14442;50.196;8.096;2022-11-25T15:24:49;23.00;47.20
15983;DHT22;14442;50.196;8.096;2022-11-25T15:27:18;23.00;47.10
15983;DHT22;14442;50.196;8.096;2022-11-25T15:29:46;23.00;47.00
15983;DHT22;14442;50.196;8.096;2022-11-25T15:32:15;23.10;47.00
15983;DHT22;14442;50.196;8.096;2022-11-25T15:34:44;23.20;46.90
15983;DHT22;14442;50.196;8.096;2022-11-25T15:37:13;23.20;46.90
15983;DHT22;14442;50.196;8.096;2022-11-25T15:39:40;23.20;46.80
15983;DHT22;14442;50.196;8.096;2022-11-25T15:42:14;23.30;46.90
15983;DHT22;14442;50.196;8.096;2022-11-25T15:44:45;23.30;46.80
15983;DHT22;14442;50.196;8.096;2022-11-25T15:47:18;23.30;46.70
15983;DHT22;14442;50.196;8.096;2022-11-25T15:49:49;23.30;46.60
15983;DHT22;14442;50.196;8.096;2022-11-25T15:52:20;23.40;46.70
15983;DHT22;14442;50.196;8.096;2022-11-25T15:54:49;23.40;46.70
15983;DHT22;14442;50.196;8.096;2022-11-25T15:57:18;23.40;46.60
15983;DHT22;14442;50.196;8.096;2022-11-25T15:59:48;23.40;46.60